createdAt,value
2022-09-10T00:00:40.765Z,15.18
2022-09-10T00:01:30.772Z,15.16
2022-09-10T00:02:20.749Z,15.16
2022-09-10T00:03:10.774Z,15.15
2022-09-10T00:04:00.731Z,15.18
2022-09-10T00:04:50.702Z,15.19
2022-09-10T00:05:40.706Z,15.23
2022-09-10T00:06:30.685Z,15.28
2022-09-10T00:07:20.799Z,15.31
2022-09-10T00:08:10.665Z,15.33
2022-09-10T00:09:00.675Z,15.34
2022-09-10T00:09:50.638Z,15.38
2022-09-10T00:10:40.638Z,15.37
2022-09-10T00:11:30.637Z,15.41
2022-09-10T00:12:20.628Z,15.43
2022-09-10T00:13:10.597Z,15.43
2022-09-10T00:14:00.603Z,15.46
2022-09-10T00:14:50.587Z,15.44
2022-09-10T00:15:40.569Z,15.44
2022-09-10T00:16:30.631Z,15.44
2022-09-10T00:17:20.587Z,15.48
2022-09-10T00:18:10.549Z,15.48
2022-09-10T00:19:00.538Z,15.48
2022-09-10T00:19:50.538Z,15.46
2022-09-10T00:20:40.535Z,15.44
2022-09-10T00:21:30.517Z,15.44
2022-09-10T00:22:20.530Z,15.43
2022-09-10T00:23:10.499Z,15.43
2022-09-10T00:24:00.476Z,15.44
2022-09-10T00:24:50.474Z,15.48
2022-09-10T00:25:40.480Z,15.49
2022-09-10T00:26:30.475Z,15.49
2022-09-10T00:27:20.458Z,15.51
2022-09-10T00:28:10.445Z,15.52
2022-09-10T00:29:00.424Z,15.52
2022-09-10T00:29:50.412Z,15.56
2022-09-10T00:30:40.405Z,15.58
2022-09-10T00:31:30.491Z,15.60
2022-09-10T00:32:20.414Z,15.60
2022-09-10T00:33:10.377Z,15.64
2022-09-10T00:34:00.368Z,15.67
2022-09-10T00:34:50.355Z,15.66
2022-09-10T00:35:40.364Z,15.66
2022-09-10T00:36:30.353Z,15.64
2022-09-10T00:37:20.355Z,15.66
2022-09-10T00:38:10.335Z,15.60
2022-09-10T00:39:00.316Z,15.55
2022-09-10T00:39:50.365Z,15.52
2022-09-10T00:40:40.310Z,15.51
2022-09-10T00:41:30.278Z,15.46
2022-09-10T00:42:20.302Z,15.43
2022-09-10T00:43:10.257Z,15.40
2022-09-10T00:44:00.255Z,15.43
2022-09-10T00:44:50.265Z,15.40
2022-09-10T00:45:40.279Z,15.37
2022-09-10T00:46:30.228Z,15.35
2022-09-10T00:47:20.236Z,15.33
2022-09-10T00:48:10.217Z,15.30
2022-09-10T00:49:00.202Z,15.25
2022-09-10T00:49:50.211Z,15.25
2022-09-10T00:50:40.195Z,15.23
2022-09-10T00:51:30.185Z,15.23
2022-09-10T00:52:20.177Z,15.25
2022-09-10T00:53:10.152Z,15.25
2022-09-10T00:54:00.162Z,15.27
2022-09-10T00:54:50.134Z,15.28
2022-09-10T00:55:40.135Z,15.31
2022-09-10T00:56:30.137Z,15.30
2022-09-10T00:57:20.403Z,15.28
2022-09-10T00:58:10.107Z,15.18
2022-09-10T00:59:00.095Z,15.09
2022-09-10T00:59:50.074Z,15.09
2022-09-10T01:00:40.116Z,15.04
2022-09-10T01:01:30.056Z,14.97
2022-09-10T01:02:20.152Z,14.93
2022-09-10T01:03:10.056Z,14.86
2022-09-10T01:04:00.035Z,14.83
2022-09-10T01:04:50.026Z,14.85
2022-09-10T01:05:40.034Z,14.83
2022-09-10T01:06:30.016Z,14.83
2022-09-10T01:07:20.028Z,14.74
2022-09-10T01:08:09.993Z,14.69
2022-09-10T01:08:59.996Z,14.71
2022-09-10T01:09:49.982Z,14.66
2022-09-10T01:10:39.957Z,14.61
2022-09-10T01:11:29.942Z,14.59
2022-09-10T01:12:19.964Z,14.59
2022-09-10T01:13:09.943Z,14.59
2022-09-10T01:13:59.923Z,14.56
2022-09-10T01:14:49.931Z,14.53
2022-09-10T01:15:39.904Z,14.53
2022-09-10T01:16:29.960Z,14.53
2022-09-10T01:17:19.895Z,14.54
2022-09-10T01:18:09.876Z,14.52
2022-09-10T01:18:59.866Z,14.53
2022-09-10T01:19:49.861Z,14.53
2022-09-10T01:20:39.854Z,14.56
2022-09-10T01:21:29.861Z,14.54
2022-09-10T01:22:19.843Z,14.56
2022-09-10T01:23:11.070Z,14.54
2022-09-10T01:23:59.833Z,14.53
2022-09-10T01:24:49.823Z,14.52
2022-09-10T01:25:39.795Z,14.44
2022-09-10T01:26:29.795Z,14.41
2022-09-10T01:27:19.779Z,14.42
2022-09-10T01:28:09.761Z,14.44
2022-09-10T01:28:59.755Z,14.46
2022-09-10T01:29:49.733Z,14.46
2022-09-10T01:30:39.754Z,14.48
2022-09-10T01:31:29.738Z,14.48
2022-09-10T01:32:19.737Z,14.49
2022-09-10T01:33:09.711Z,14.46
2022-09-10T01:33:59.695Z,14.48
2022-09-10T01:34:49.692Z,14.46
2022-09-10T01:35:39.697Z,14.46
2022-09-10T01:36:29.673Z,14.41
2022-09-10T01:37:19.653Z,14.39
2022-09-10T01:38:09.649Z,14.36
2022-09-10T01:38:59.643Z,14.35
2022-09-10T01:39:49.676Z,14.34
2022-09-10T01:40:39.622Z,14.31
2022-09-10T01:41:29.611Z,14.30
2022-09-10T01:42:19.632Z,14.30
2022-09-10T01:43:09.603Z,14.27
2022-09-10T01:43:59.594Z,14.24
2022-09-10T01:44:49.591Z,14.24
2022-09-10T01:45:39.587Z,14.26
2022-09-10T01:46:29.568Z,14.27
2022-09-10T01:47:19.561Z,14.29
2022-09-10T01:48:09.533Z,14.29
2022-09-10T01:48:59.550Z,14.30
2022-09-10T01:49:49.521Z,14.30
2022-09-10T01:50:39.511Z,14.30
2022-09-10T01:51:29.503Z,14.35
2022-09-10T01:52:19.525Z,14.35
2022-09-10T01:53:09.502Z,14.35
2022-09-10T01:53:59.485Z,14.35
2022-09-10T01:54:49.481Z,14.36
2022-09-10T01:55:39.464Z,14.38
2022-09-10T01:56:29.451Z,14.36
2022-09-10T01:57:19.452Z,14.35
2022-09-10T01:58:09.441Z,14.35
2022-09-10T01:58:59.422Z,14.35
2022-09-10T01:59:49.412Z,14.35
2022-09-10T02:00:39.473Z,14.34
2022-09-10T02:01:29.525Z,14.31
2022-09-10T02:02:19.460Z,14.31
2022-09-10T02:03:09.371Z,14.31
2022-09-10T02:03:59.381Z,14.34
2022-09-10T02:04:49.361Z,14.34
2022-09-10T02:05:39.351Z,14.35
2022-09-10T02:06:29.346Z,14.34
2022-09-10T02:07:19.357Z,14.30
2022-09-10T02:08:09.322Z,14.26
2022-09-10T02:08:59.329Z,14.23
2022-09-10T02:09:49.303Z,14.20
2022-09-10T02:10:39.289Z,14.17
2022-09-10T02:11:29.300Z,14.17
2022-09-10T02:12:19.301Z,14.17
2022-09-10T02:13:09.270Z,14.16
2022-09-10T02:13:59.250Z,14.13
2022-09-10T02:14:49.240Z,14.17
2022-09-10T02:15:39.250Z,14.17
2022-09-10T02:16:29.252Z,14.17
2022-09-10T02:17:19.230Z,14.13
2022-09-10T02:18:09.210Z,14.13
2022-09-10T02:18:59.535Z,14.12
2022-09-10T02:19:49.205Z,14.13
2022-09-10T02:20:39.179Z,14.17
2022-09-10T02:21:29.159Z,14.16
2022-09-10T02:22:19.180Z,14.16
2022-09-10T02:23:09.179Z,14.17
2022-09-10T02:23:59.151Z,14.17
2022-09-10T02:24:49.127Z,14.17
2022-09-10T02:25:39.122Z,14.13
2022-09-10T02:26:29.111Z,14.17
2022-09-10T02:27:19.137Z,14.17
2022-09-10T02:28:09.124Z,14.19
2022-09-10T02:28:59.093Z,14.20
2022-09-10T02:29:49.098Z,14.23
2022-09-10T02:30:39.059Z,14.24
2022-09-10T02:31:29.083Z,14.23
2022-09-10T02:32:19.113Z,14.23
2022-09-10T02:33:09.052Z,14.23
2022-09-10T02:33:59.020Z,14.21
2022-09-10T02:34:49.033Z,14.21
2022-09-10T02:35:39.021Z,14.20
2022-09-10T02:36:29.003Z,14.20
2022-09-10T02:37:19.021Z,14.20
2022-09-10T02:38:08.998Z,14.20
2022-09-10T02:38:58.970Z,14.17
2022-09-10T02:39:49.058Z,14.17
2022-09-10T02:40:38.961Z,14.16
2022-09-10T02:41:28.950Z,14.16
2022-09-10T02:42:18.970Z,14.13
2022-09-10T02:43:08.948Z,14.16
2022-09-10T02:43:58.930Z,14.12
2022-09-10T02:44:48.921Z,14.12
2022-09-10T02:45:38.922Z,14.12
2022-09-10T02:46:28.903Z,14.11
2022-09-10T02:47:18.913Z,14.13
2022-09-10T02:48:08.887Z,14.13
2022-09-10T02:48:58.859Z,14.12
2022-09-10T02:49:48.850Z,14.06
2022-09-10T02:50:38.848Z,14.08
2022-09-10T02:51:28.831Z,14.06
2022-09-10T02:52:18.906Z,14.04
2022-09-10T02:53:08.818Z,14.04
2022-09-10T02:53:58.829Z,14.04
2022-09-10T02:54:48.801Z,14.04
2022-09-10T02:55:38.789Z,14.04
2022-09-10T02:56:28.799Z,14.04
2022-09-10T02:57:18.784Z,14.05
2022-09-10T02:58:08.757Z,14.04
2022-09-10T02:58:58.754Z,14.05
2022-09-10T02:59:48.743Z,14.04
2022-09-10T03:00:38.747Z,14.04
2022-09-10T03:01:28.771Z,14.05
2022-09-10T03:02:18.786Z,14.05
2022-09-10T03:03:08.706Z,14.01
2022-09-10T03:03:58.707Z,14.02
2022-09-10T03:04:48.690Z,14.01
2022-09-10T03:05:38.695Z,14.01
2022-09-10T03:06:28.688Z,14.02
2022-09-10T03:07:18.670Z,14.04
2022-09-10T03:08:08.661Z,14.05
2022-09-10T03:08:58.649Z,14.08
2022-09-10T03:09:48.628Z,14.08
2022-09-10T03:10:38.630Z,14.08
2022-09-10T03:11:28.643Z,14.09
2022-09-10T03:12:18.618Z,14.08
2022-09-10T03:13:08.597Z,14.11
2022-09-10T03:13:58.589Z,14.11
2022-09-10T03:14:48.586Z,14.12
2022-09-10T03:15:38.568Z,14.16
2022-09-10T03:16:28.616Z,14.13
2022-09-10T03:17:18.559Z,14.13
2022-09-10T03:18:08.544Z,14.16
2022-09-10T03:18:58.531Z,14.17
2022-09-10T03:19:48.539Z,14.17
2022-09-10T03:20:38.532Z,14.17
2022-09-10T03:21:28.516Z,14.20
2022-09-10T03:22:18.548Z,14.20
2022-09-10T03:23:08.497Z,14.19
2022-09-10T03:23:58.501Z,14.19
2022-09-10T03:24:48.487Z,14.19
2022-09-10T03:25:38.463Z,14.19
2022-09-10T03:26:28.457Z,14.17
2022-09-10T03:27:18.498Z,14.17
2022-09-10T03:28:08.427Z,14.17
2022-09-10T03:28:58.436Z,14.16
2022-09-10T03:29:48.459Z,14.17
2022-09-10T03:30:38.411Z,14.13
2022-09-10T03:31:28.461Z,14.11
2022-09-10T03:32:18.407Z,14.06
2022-09-10T03:33:08.386Z,14.06
2022-09-10T03:33:58.389Z,14.08
2022-09-10T03:34:48.378Z,14.05
2022-09-10T03:35:38.349Z,14.05
2022-09-10T03:36:28.357Z,14.05
2022-09-10T03:37:18.368Z,14.06
2022-09-10T03:38:08.316Z,14.05
2022-09-10T03:38:58.326Z,14.05
2022-09-10T03:39:48.335Z,14.04
2022-09-10T03:40:38.306Z,14.04
2022-09-10T03:41:28.304Z,14.01
2022-09-10T03:42:18.313Z,13.96
2022-09-10T03:43:08.270Z,13.94
2022-09-10T03:43:58.258Z,13.94
2022-09-10T03:44:48.271Z,13.94
2022-09-10T03:45:38.267Z,13.94
2022-09-10T03:46:28.227Z,13.93
2022-09-10T03:47:18.236Z,13.93
2022-09-10T03:48:08.213Z,13.94
2022-09-10T03:48:58.225Z,13.93
2022-09-10T03:49:48.196Z,13.91
2022-09-10T03:50:38.177Z,13.91
2022-09-10T03:51:28.181Z,13.91
2022-09-10T03:52:18.195Z,13.91
2022-09-10T03:53:08.173Z,13.88
2022-09-10T03:53:58.135Z,13.87
2022-09-10T03:54:48.159Z,13.86
2022-09-10T03:55:38.131Z,13.86
2022-09-10T03:56:28.146Z,13.83
2022-09-10T03:57:18.111Z,13.83
2022-09-10T03:58:08.127Z,13.81
2022-09-10T03:58:58.098Z,13.83
2022-09-10T03:59:48.084Z,13.81
2022-09-10T04:00:38.087Z,13.81
2022-09-10T04:01:28.184Z,13.79
2022-09-10T04:02:18.141Z,13.75
2022-09-10T04:03:08.052Z,13.75
2022-09-10T04:03:58.025Z,13.69
2022-09-10T04:04:48.037Z,13.69
2022-09-10T04:05:38.039Z,13.66
2022-09-10T04:06:28.035Z,13.65
2022-09-10T04:07:17.996Z,13.66
2022-09-10T04:08:08.005Z,13.68
2022-09-10T04:08:57.983Z,13.68
2022-09-10T04:09:47.983Z,13.69
2022-09-10T04:10:37.975Z,13.69
2022-09-10T04:11:27.984Z,13.69
2022-09-10T04:12:17.935Z,13.69
2022-09-10T04:13:07.937Z,13.71
2022-09-10T04:13:57.936Z,13.69
2022-09-10T04:14:47.916Z,13.66
2022-09-10T04:15:37.913Z,13.65
2022-09-10T04:16:27.976Z,13.63
2022-09-10T04:17:17.892Z,13.63
2022-09-10T04:18:07.885Z,13.66
2022-09-10T04:18:57.874Z,13.66
2022-09-10T04:19:47.888Z,13.68
2022-09-10T04:20:37.846Z,13.69
2022-09-10T04:21:27.893Z,13.72
2022-09-10T04:22:17.838Z,13.72
2022-09-10T04:23:07.838Z,13.73
2022-09-10T04:23:57.831Z,13.72
2022-09-10T04:24:47.815Z,13.69
2022-09-10T04:25:37.793Z,13.69
2022-09-10T04:26:27.803Z,13.69
2022-09-10T04:27:17.792Z,13.68
2022-09-10T04:28:07.775Z,13.68
2022-09-10T04:28:57.753Z,13.68
2022-09-10T04:29:47.754Z,13.69
2022-09-10T04:30:37.735Z,13.71
2022-09-10T04:31:27.829Z,13.73
2022-09-10T04:32:17.713Z,13.75
2022-09-10T04:33:07.713Z,13.76
2022-09-10T04:33:57.703Z,13.80
2022-09-10T04:34:47.694Z,13.80
2022-09-10T04:35:37.686Z,13.79
2022-09-10T04:36:27.704Z,13.80
2022-09-10T04:37:19.473Z,13.81
2022-09-10T04:38:07.663Z,13.79
2022-09-10T04:38:57.654Z,13.76
2022-09-10T04:39:47.693Z,13.75
2022-09-10T04:40:37.637Z,13.76
2022-09-10T04:41:27.632Z,13.75
2022-09-10T04:42:17.621Z,13.79
2022-09-10T04:43:07.603Z,13.79
2022-09-10T04:43:57.592Z,13.81
2022-09-10T04:44:47.593Z,13.80
2022-09-10T04:45:37.634Z,13.75
2022-09-10T04:46:27.603Z,13.73
2022-09-10T04:47:17.575Z,13.72
2022-09-10T04:48:07.566Z,13.75
2022-09-10T04:48:57.532Z,13.76
2022-09-10T04:49:47.523Z,13.79
2022-09-10T04:50:37.530Z,13.84
2022-09-10T04:51:27.522Z,13.87
2022-09-10T04:52:17.513Z,13.87
2022-09-10T04:53:07.507Z,13.88
2022-09-10T04:53:57.490Z,13.88
2022-09-10T04:54:47.493Z,13.88
2022-09-10T04:55:37.461Z,13.87
2022-09-10T04:56:27.473Z,13.86
2022-09-10T04:57:17.448Z,13.86
2022-09-10T04:58:07.461Z,13.90
2022-09-10T04:58:57.421Z,13.90
2022-09-10T04:59:47.425Z,13.91
2022-09-10T05:00:37.429Z,13.93
2022-09-10T05:01:27.479Z,13.93
2022-09-10T05:02:17.451Z,13.94
2022-09-10T05:03:07.398Z,13.93
2022-09-10T05:03:57.388Z,13.93
2022-09-10T05:04:47.360Z,13.94
2022-09-10T05:05:37.375Z,13.91
2022-09-10T05:06:27.361Z,13.90
2022-09-10T05:07:17.334Z,13.91
2022-09-10T05:08:07.349Z,13.88
2022-09-10T05:08:57.320Z,13.88
2022-09-10T05:09:47.308Z,13.90
2022-09-10T05:10:37.332Z,13.94
2022-09-10T05:11:27.292Z,13.94
2022-09-10T05:12:17.291Z,13.94
2022-09-10T05:13:07.274Z,13.96
2022-09-10T05:13:57.270Z,13.98
2022-09-10T05:14:47.263Z,13.94
2022-09-10T05:15:37.270Z,13.96
2022-09-10T05:16:27.307Z,13.98
2022-09-10T05:17:17.211Z,13.99
2022-09-10T05:18:07.219Z,13.98
2022-09-10T05:18:57.197Z,13.99
2022-09-10T05:19:47.230Z,13.98
2022-09-10T05:20:37.191Z,13.93
2022-09-10T05:21:27.192Z,13.94
2022-09-10T05:22:17.168Z,13.96
2022-09-10T05:23:07.173Z,13.96
2022-09-10T05:23:57.152Z,13.96
2022-09-10T05:24:47.155Z,13.93
2022-09-10T05:25:37.130Z,13.93
2022-09-10T05:26:27.139Z,13.93
2022-09-10T05:27:17.118Z,13.91
2022-09-10T05:28:07.123Z,13.90
2022-09-10T05:28:57.080Z,13.88
2022-09-10T05:29:47.093Z,13.91
2022-09-10T05:30:37.079Z,13.93
2022-09-10T05:31:27.121Z,13.91
2022-09-10T05:32:17.059Z,13.93
2022-09-10T05:33:07.049Z,13.90
2022-09-10T05:33:57.046Z,13.91
2022-09-10T05:34:47.042Z,13.91
2022-09-10T05:35:37.030Z,13.90
2022-09-10T05:36:27.041Z,13.91
2022-09-10T05:37:17.001Z,13.94
2022-09-10T05:38:06.998Z,13.96
2022-09-10T05:38:56.979Z,13.93
2022-09-10T05:39:46.986Z,13.93
2022-09-10T05:40:36.968Z,13.93
2022-09-10T05:41:26.978Z,13.91
2022-09-10T05:42:16.956Z,13.93
2022-09-10T05:43:06.940Z,13.93
2022-09-10T05:43:56.951Z,13.94
2022-09-10T05:44:46.937Z,13.94
2022-09-10T05:45:36.971Z,13.96
2022-09-10T05:46:26.910Z,13.94
2022-09-10T05:47:16.880Z,13.96
2022-09-10T05:48:06.891Z,13.94
2022-09-10T05:48:56.880Z,13.94
2022-09-10T05:49:46.860Z,13.94
2022-09-10T05:50:36.850Z,13.93
2022-09-10T05:51:26.861Z,13.94
2022-09-10T05:52:16.850Z,13.93
2022-09-10T05:53:06.839Z,13.94
2022-09-10T05:53:56.821Z,13.98
2022-09-10T05:54:46.830Z,14.02
2022-09-10T05:55:36.791Z,14.04
2022-09-10T05:56:26.798Z,14.05
2022-09-10T05:57:16.809Z,14.06
2022-09-10T05:58:06.773Z,14.09
2022-09-10T05:58:56.750Z,14.11
2022-09-10T05:59:46.748Z,14.11
2022-09-10T06:00:36.767Z,14.12
2022-09-10T06:01:26.753Z,14.11
2022-09-10T06:02:18.678Z,14.11
2022-09-10T06:03:07.852Z,14.12
2022-09-10T06:03:56.700Z,14.11
2022-09-10T06:04:46.711Z,14.12
2022-09-10T06:05:36.689Z,14.12
2022-09-10T06:06:26.696Z,14.16
2022-09-10T06:07:16.680Z,14.16
2022-09-10T06:08:08.501Z,14.20
2022-09-10T06:08:56.651Z,14.21
2022-09-10T06:09:46.650Z,14.23
2022-09-10T06:10:36.649Z,14.27
2022-09-10T06:11:26.627Z,14.29
2022-09-10T06:12:16.610Z,14.31
2022-09-10T06:13:06.595Z,14.31
2022-09-10T06:13:56.617Z,14.31
2022-09-10T06:14:46.588Z,14.31
2022-09-10T06:15:36.583Z,14.30
2022-09-10T06:16:26.640Z,14.27
2022-09-10T06:17:16.559Z,14.30
2022-09-10T06:18:06.550Z,14.27
2022-09-10T06:18:56.540Z,14.30
2022-09-10T06:19:46.528Z,14.29
2022-09-10T06:20:36.538Z,14.30
2022-09-10T06:21:28.384Z,14.34
2022-09-10T06:22:16.532Z,14.31
2022-09-10T06:23:06.493Z,14.31
2022-09-10T06:23:56.485Z,14.31
2022-09-10T06:24:46.466Z,14.35
2022-09-10T06:25:36.478Z,14.36
2022-09-10T06:26:26.486Z,14.36
2022-09-10T06:27:16.465Z,14.34
2022-09-10T06:28:06.445Z,14.34
2022-09-10T06:28:56.446Z,14.36
2022-09-10T06:29:46.447Z,14.35
2022-09-10T06:30:36.480Z,14.38
2022-09-10T06:31:26.414Z,14.36
2022-09-10T06:32:16.390Z,14.35
2022-09-10T06:33:06.397Z,14.41
2022-09-10T06:33:56.378Z,14.41
2022-09-10T06:34:46.391Z,14.39
2022-09-10T06:35:36.365Z,14.39
2022-09-10T06:36:26.356Z,14.39
2022-09-10T06:37:16.346Z,14.41
2022-09-10T06:38:06.336Z,14.42
2022-09-10T06:38:56.320Z,14.41
2022-09-10T06:39:46.340Z,14.42
2022-09-10T06:40:36.305Z,14.45
2022-09-10T06:41:26.308Z,14.48
2022-09-10T06:42:16.276Z,14.52
2022-09-10T06:43:06.267Z,14.56
2022-09-10T06:43:56.275Z,14.54
2022-09-10T06:44:46.263Z,14.56
2022-09-10T06:45:36.283Z,14.57
2022-09-10T06:47:02.910Z,14.59
2022-09-10T06:48:06.479Z,14.60
2022-09-10T06:48:37.852Z,14.63
2022-09-10T06:48:57.327Z,14.67
2022-09-10T06:49:46.186Z,14.69
2022-09-10T06:50:36.205Z,14.74
2022-09-10T06:51:26.208Z,14.75
2022-09-10T06:52:16.168Z,14.78
2022-09-10T06:53:06.201Z,14.80
2022-09-10T06:53:56.156Z,14.82
2022-09-10T06:54:46.157Z,14.85
2022-09-10T06:55:36.134Z,14.86
2022-09-10T06:56:26.166Z,14.87
2022-09-10T06:57:16.114Z,14.87
2022-09-10T06:58:06.106Z,14.91
2022-09-10T06:58:59.224Z,14.91
2022-09-10T06:59:47.088Z,14.94
2022-09-10T07:00:36.083Z,14.93
2022-09-10T07:01:26.196Z,14.97
2022-09-10T07:02:16.101Z,15.00
2022-09-10T07:03:06.062Z,15.03
2022-09-10T07:03:56.056Z,15.01
2022-09-10T07:04:46.077Z,15.00
2022-09-10T07:05:36.035Z,15.01
2022-09-10T07:06:26.039Z,15.01
2022-09-10T07:07:15.997Z,15.03
2022-09-10T07:08:05.996Z,15.09
2022-09-10T07:08:56.007Z,15.11
2022-09-10T07:09:45.994Z,15.12
2022-09-10T07:10:35.977Z,15.18
2022-09-10T07:11:25.965Z,15.20
2022-09-10T07:12:15.985Z,15.23
2022-09-10T07:13:05.953Z,15.27
2022-09-10T07:13:55.929Z,15.28
2022-09-10T07:14:45.934Z,15.30
2022-09-10T07:15:35.948Z,15.28
2022-09-10T07:16:25.920Z,15.30
2022-09-10T07:17:15.902Z,15.27
2022-09-10T07:18:05.895Z,15.23
2022-09-10T07:18:55.874Z,15.23
2022-09-10T07:19:45.873Z,15.25
2022-09-10T07:20:35.897Z,15.27
2022-09-10T07:21:25.874Z,15.27
2022-09-10T07:22:15.845Z,15.28
2022-09-10T07:23:08.072Z,15.30
2022-09-10T07:23:56.866Z,15.30
2022-09-10T07:24:45.812Z,15.31
2022-09-10T07:25:35.795Z,15.28
2022-09-10T07:26:25.801Z,15.27
2022-09-10T07:27:15.810Z,15.22
2022-09-10T07:28:05.770Z,15.20
2022-09-10T07:28:55.785Z,15.22
2022-09-10T07:29:45.772Z,15.23
2022-09-10T07:30:35.746Z,15.22
2022-09-10T07:31:25.798Z,15.19
2022-09-10T07:32:15.759Z,15.18
2022-09-10T07:33:05.723Z,15.20
2022-09-10T07:33:55.707Z,15.23
2022-09-10T07:34:45.705Z,15.27
2022-09-10T07:35:35.703Z,15.27
2022-09-10T07:36:25.694Z,15.27
2022-09-10T07:37:15.679Z,15.22
2022-09-10T07:38:05.671Z,15.18
2022-09-10T07:38:55.658Z,15.18
2022-09-10T07:39:45.706Z,15.19
2022-09-10T07:40:35.632Z,15.22
2022-09-10T07:41:25.652Z,15.22
2022-09-10T07:42:15.613Z,15.23
2022-09-10T07:43:05.613Z,15.27
2022-09-10T07:43:55.594Z,15.25
2022-09-10T07:44:45.583Z,15.20
2022-09-10T07:45:35.603Z,15.13
2022-09-10T07:46:25.760Z,15.13
2022-09-10T07:47:15.576Z,15.15
2022-09-10T07:48:05.555Z,15.19
2022-09-10T07:48:55.574Z,15.20
2022-09-10T07:49:45.533Z,15.23
2022-09-10T07:50:35.556Z,15.20
2022-09-10T07:51:25.524Z,15.22
2022-09-10T07:52:15.513Z,15.23
2022-09-10T07:53:05.491Z,15.25
2022-09-10T07:53:55.495Z,15.22
2022-09-10T07:54:45.462Z,15.25
2022-09-10T07:55:35.494Z,15.25
2022-09-10T07:56:25.450Z,15.25
2022-09-10T07:57:15.459Z,15.27
2022-09-10T07:58:05.430Z,15.31
2022-09-10T07:58:55.430Z,15.35
2022-09-10T07:59:45.431Z,15.35
2022-09-10T08:00:35.423Z,15.38
2022-09-10T08:01:25.489Z,15.40
2022-09-10T08:02:15.521Z,15.41
2022-09-10T08:03:05.382Z,15.43
2022-09-10T08:03:55.386Z,15.49
2022-09-10T08:04:45.372Z,15.49
2022-09-10T08:05:35.373Z,15.44
2022-09-10T08:06:25.372Z,15.44
2022-09-10T08:07:15.346Z,15.46
2022-09-10T08:08:05.340Z,15.44
2022-09-10T08:08:55.322Z,15.44
2022-09-10T08:09:45.303Z,15.44
2022-09-10T08:10:35.344Z,15.38
2022-09-10T08:11:25.294Z,15.41
2022-09-10T08:12:15.294Z,15.46
2022-09-10T08:13:05.273Z,15.49
2022-09-10T08:13:55.322Z,15.52
2022-09-10T08:14:45.263Z,15.58
2022-09-10T08:15:35.294Z,15.58
2022-09-10T08:16:25.271Z,15.60
2022-09-10T08:17:15.221Z,15.60
2022-09-10T08:18:05.203Z,15.64
2022-09-10T08:18:55.216Z,15.71
2022-09-10T08:19:45.195Z,15.76
2022-09-10T08:20:35.237Z,15.76
2022-09-10T08:21:25.194Z,15.78
2022-09-10T08:22:15.172Z,15.85
2022-09-10T08:23:05.151Z,15.88
2022-09-10T08:23:55.167Z,15.89
2022-09-10T08:24:45.142Z,15.95
2022-09-10T08:25:35.132Z,16.01
2022-09-10T08:26:25.130Z,16.06
2022-09-10T08:27:15.117Z,16.07
2022-09-10T08:28:05.092Z,16.13
2022-09-10T08:28:55.103Z,16.18
2022-09-10T08:29:45.071Z,16.23
2022-09-10T08:30:35.161Z,16.29
2022-09-10T08:31:25.114Z,16.33
2022-09-10T08:32:15.053Z,16.37
2022-09-10T08:33:05.054Z,16.30
2022-09-10T08:33:55.033Z,16.30
2022-09-10T08:34:45.039Z,16.33
2022-09-10T08:35:35.013Z,16.34
2022-09-10T08:36:25.041Z,16.33
2022-09-10T08:37:15.003Z,16.34
2022-09-10T08:38:04.980Z,16.41
2022-09-10T08:38:59.792Z,16.44
2022-09-10T08:39:45.998Z,16.37
2022-09-10T08:40:34.979Z,16.36
2022-09-10T08:41:24.962Z,16.40
2022-09-10T08:42:14.951Z,16.41
2022-09-10T08:43:04.921Z,16.44
2022-09-10T08:43:54.932Z,16.42
2022-09-10T08:44:44.929Z,16.40
2022-09-10T08:45:35.017Z,16.30
2022-09-10T08:46:24.923Z,16.11
2022-09-10T08:47:14.881Z,16.13
2022-09-10T08:48:04.885Z,16.18
2022-09-10T08:48:54.862Z,16.25
2022-09-10T08:49:44.885Z,16.26
2022-09-10T08:50:34.842Z,16.30
2022-09-10T08:51:24.841Z,16.33
2022-09-10T08:52:14.851Z,16.32
2022-09-10T08:53:04.812Z,16.33
2022-09-10T08:53:54.845Z,16.30
2022-09-10T08:54:44.807Z,16.29
2022-09-10T08:55:34.796Z,16.25
2022-09-10T08:56:24.808Z,16.23
2022-09-10T08:57:14.772Z,16.18
2022-09-10T08:58:04.759Z,16.22
2022-09-10T08:58:54.771Z,16.17
2022-09-10T08:59:44.746Z,16.16
2022-09-10T09:00:34.753Z,16.04
2022-09-10T09:01:24.797Z,16.07
2022-09-10T09:02:31.597Z,16.10
2022-09-10T09:03:05.774Z,16.11
2022-09-10T09:03:54.712Z,16.14
2022-09-10T09:04:44.711Z,16.14
2022-09-10T09:05:34.702Z,16.10
2022-09-10T09:06:24.680Z,16.08
2022-09-10T09:07:14.670Z,16.10
2022-09-10T09:08:04.670Z,16.07
2022-09-10T09:08:54.648Z,16.04
2022-09-10T09:09:44.632Z,16.07
2022-09-10T09:10:34.663Z,16.04
2022-09-10T09:11:24.633Z,16.04
2022-09-10T09:12:14.610Z,16.08
2022-09-10T09:13:04.610Z,16.14
2022-09-10T09:13:54.590Z,16.22
2022-09-10T09:14:44.589Z,16.23
2022-09-10T09:15:34.652Z,16.22
2022-09-10T09:16:24.590Z,16.27
2022-09-10T09:17:14.550Z,16.36
2022-09-10T09:18:04.534Z,16.40
2022-09-10T09:18:54.564Z,16.44
2022-09-10T09:19:44.532Z,16.45
2022-09-10T09:20:34.523Z,16.47
2022-09-10T09:21:24.521Z,16.47
2022-09-10T09:22:14.509Z,16.47
2022-09-10T09:23:04.487Z,16.44
2022-09-10T09:24:12.165Z,16.37
2022-09-10T09:24:45.492Z,16.36
2022-09-10T09:25:34.473Z,16.32
2022-09-10T09:26:24.462Z,16.30
2022-09-10T09:27:14.431Z,16.33
2022-09-10T09:28:04.472Z,16.36
2022-09-10T09:28:54.448Z,16.36
2022-09-10T09:29:44.418Z,16.37
2022-09-10T09:30:34.422Z,16.40
2022-09-10T09:31:24.480Z,16.37
2022-09-10T09:32:14.380Z,16.42
2022-09-10T09:33:04.390Z,16.42
2022-09-10T09:33:54.408Z,16.42
2022-09-10T09:34:44.358Z,16.42
2022-09-10T09:35:34.350Z,16.44
2022-09-10T09:36:24.379Z,16.47
2022-09-10T09:37:14.323Z,16.44
2022-09-10T09:38:04.320Z,16.45
2022-09-10T09:38:54.318Z,16.47
2022-09-10T09:39:44.368Z,16.48
2022-09-10T09:40:34.290Z,16.52
2022-09-10T09:41:24.309Z,16.52
2022-09-10T09:42:14.280Z,16.55
2022-09-10T09:43:04.259Z,16.57
2022-09-10T09:43:54.268Z,16.57
2022-09-10T09:44:44.256Z,16.57
2022-09-10T09:45:34.338Z,16.57
2022-09-10T09:46:24.305Z,16.59
2022-09-10T09:47:14.219Z,16.59
2022-09-10T09:48:04.215Z,16.55
2022-09-10T09:48:54.208Z,16.51
2022-09-10T09:49:44.187Z,16.48
2022-09-10T09:50:34.180Z,16.45
2022-09-10T09:51:24.227Z,16.47
2022-09-10T09:52:14.168Z,16.48
2022-09-10T09:53:04.167Z,16.47
2022-09-10T09:54:18.414Z,16.42
2022-09-10T09:55:13.200Z,16.41
2022-09-10T09:55:35.119Z,16.42
2022-09-10T09:56:24.145Z,16.36
2022-09-10T09:57:14.097Z,16.29
2022-09-10T09:58:04.095Z,16.26
2022-09-10T09:58:54.996Z,16.27
2022-09-10T09:59:44.167Z,16.25
2022-09-10T10:00:34.079Z,16.26
2022-09-10T10:01:24.136Z,16.25
2022-09-10T10:02:14.070Z,16.17
2022-09-10T10:03:04.038Z,16.17
2022-09-10T10:03:54.029Z,16.22
2022-09-10T10:04:44.051Z,16.23
2022-09-10T10:05:34.009Z,16.27
2022-09-10T10:06:24.701Z,16.32
2022-09-10T10:07:13.980Z,16.25
2022-09-10T10:08:03.984Z,16.23
2022-09-10T10:08:53.986Z,16.25
2022-09-10T10:09:43.977Z,16.26
2022-09-10T10:10:33.967Z,16.29
2022-09-10T10:11:23.977Z,16.27
2022-09-10T10:12:13.930Z,16.25
2022-09-10T10:13:03.950Z,16.26
2022-09-10T10:13:53.917Z,16.27
2022-09-10T10:14:43.910Z,16.22
2022-09-10T10:15:34.027Z,16.23
2022-09-10T10:16:23.908Z,16.22
2022-09-10T10:17:13.889Z,16.25
2022-09-10T10:18:03.874Z,16.26
2022-09-10T10:18:53.848Z,16.30
2022-09-10T10:19:43.857Z,16.34
2022-09-10T10:20:33.837Z,16.40
2022-09-10T10:21:23.867Z,16.41
2022-09-10T10:22:13.848Z,16.41
2022-09-10T10:23:03.817Z,16.42
2022-09-10T10:23:53.797Z,16.42
2022-09-10T10:24:43.831Z,16.42
2022-09-10T10:25:33.794Z,16.45
2022-09-10T10:26:23.800Z,16.50
2022-09-10T10:27:13.759Z,16.50
2022-09-10T10:28:03.767Z,16.51
2022-09-10T10:28:53.736Z,16.54
2022-09-10T10:29:43.731Z,16.57
2022-09-10T10:30:33.748Z,16.60
2022-09-10T10:31:23.830Z,16.59
2022-09-10T10:32:13.707Z,16.63
2022-09-10T10:33:03.717Z,16.62
2022-09-10T10:33:53.687Z,16.62
2022-09-10T10:34:43.687Z,16.59
2022-09-10T10:35:33.683Z,16.55
2022-09-10T10:36:23.702Z,16.51
2022-09-10T10:37:13.646Z,16.50
2022-09-10T10:38:03.646Z,16.47
2022-09-10T10:38:53.662Z,16.48
2022-09-10T10:39:43.647Z,16.48
2022-09-10T10:40:33.613Z,16.48
2022-09-10T10:41:23.636Z,16.50
2022-09-10T10:42:13.607Z,16.51
2022-09-10T10:43:03.586Z,16.55
2022-09-10T10:43:53.567Z,16.59